Poplar Grove, Pennsylvania
Current Conditions -  °F | °C
As of 5:53 PM on Saturday 22 Nov 2014 (Local Time) from KLNS Reporting Station
Overcast Overcast  
Wind Chill: 40°   Ceiling: 6000
Heat Index: 40°   Visibility: 10mi
Dew Point: 19°   Wind: 3mph
Humidity: 43%   Direction: 140°SE
Pressure: 30.27"   Gusts: NA
Location:  40.1769°N, 76.295°W
Report Text: KLNS 222253Z 14003KT 10SM SCT047 OVC060 04/M07 A3027 RMK AO2 SLP255 T00441072
Loading
Personal Weather Stations






























Interactive Weather Map New forecast layout! Learn more

10-Day Weather Forecast

Advertisements
Track Severe Weather on mobile